createdAt,value
2019-04-21T00:00:35.482Z,0.00
2019-04-21T00:01:38.771Z,0.00
2019-04-21T00:02:38.092Z,0.00
2019-04-21T00:03:40.697Z,0.00
2019-04-21T00:04:46.879Z,0.00
2019-04-21T00:05:57.140Z,0.00
2019-04-21T00:06:58.789Z,0.00
2019-04-21T00:08:03.635Z,0.00
2019-04-21T00:08:56.493Z,0.00
2019-04-21T00:10:59.453Z,0.00
2019-04-21T00:11:55.606Z,0.00
2019-04-21T00:12:52.286Z,0.00
2019-04-21T00:13:46.799Z,0.00
2019-04-21T00:14:47.146Z,0.00
2019-04-21T00:15:40.654Z,0.00
2019-04-21T00:16:44.367Z,0.00
2019-04-21T00:17:36.811Z,0.00
2019-04-21T00:18:42.578Z,0.00
2019-04-21T00:19:38.563Z,0.00
2019-04-21T00:20:41.426Z,0.00
2019-04-21T00:21:43.336Z,0.00
2019-04-21T00:22:47.753Z,0.00
2019-04-21T00:23:55.245Z,0.00
2019-04-21T00:24:50.155Z,0.00
2019-04-21T00:25:47.887Z,0.00
2019-04-21T00:26:55.364Z,0.00
2019-04-21T00:27:50.385Z,0.00
2019-04-21T00:28:59.238Z,0.00
2019-04-21T00:29:51.875Z,0.00
2019-04-21T00:30:58.081Z,0.00
2019-04-21T00:31:51.426Z,0.00
2019-04-21T00:32:50.227Z,0.00
2019-04-21T00:33:39.856Z,0.00
2019-04-21T00:34:36.385Z,0.00
2019-04-21T00:35:45.295Z,0.00
2019-04-21T00:36:47.565Z,0.00
2019-04-21T00:37:54.663Z,0.00
2019-04-21T00:39:09.625Z,0.00
2019-04-21T00:40:02.236Z,0.00
2019-04-21T00:41:02.554Z,0.00
2019-04-21T00:41:57.711Z,0.00
2019-04-21T00:42:58.535Z,0.00
2019-04-21T00:43:51.906Z,0.00
2019-04-21T00:44:56.615Z,0.00
2019-04-21T00:45:49.142Z,0.00
2019-04-21T00:46:53.179Z,0.00
2019-04-21T00:48:02.339Z,0.00
2019-04-21T00:48:57.442Z,0.00
2019-04-21T00:50:00.274Z,0.00
2019-04-21T00:51:12.630Z,0.00
2019-04-21T00:52:11.438Z,0.00
2019-04-21T00:53:02.253Z,0.00
2019-04-21T00:54:05.759Z,0.00
2019-04-21T00:55:10.570Z,0.00
2019-04-21T00:56:03.263Z,0.00
2019-04-21T00:57:05.371Z,0.00
2019-04-21T00:58:03.484Z,0.00
2019-04-21T00:58:59.934Z,0.00
2019-04-21T01:00:00.913Z,0.00
2019-04-21T01:00:57.047Z,0.00
2019-04-21T01:01:53.862Z,0.00
2019-04-21T01:03:04.629Z,0.00
2019-04-21T01:04:06.646Z,0.00
2019-04-21T01:05:06.173Z,0.00
2019-04-21T01:05:56.120Z,0.00
2019-04-21T01:07:05.292Z,0.00
2019-04-21T01:08:01.409Z,0.00
2019-04-21T01:08:59.552Z,0.00
2019-04-21T01:09:54.558Z,0.00
2019-04-21T01:10:51.474Z,0.00
2019-04-21T01:12:01.285Z,0.00
2019-04-21T01:13:04.000Z,0.00
2019-04-21T01:14:05.586Z,0.00
2019-04-21T01:15:04.676Z,0.00
2019-04-21T01:15:59.423Z,0.00
2019-04-21T01:16:51.671Z,0.00
2019-04-21T01:17:56.053Z,0.00
2019-04-21T01:19:03.585Z,0.00
2019-04-21T01:19:55.997Z,0.00
2019-04-21T01:20:38.747Z,0.00
2019-04-21T01:21:38.856Z,0.00
2019-04-21T01:22:38.841Z,0.00
2019-04-21T01:23:40.176Z,0.00
2019-04-21T01:24:43.055Z,0.00
2019-04-21T01:25:44.882Z,0.00
2019-04-21T01:26:47.723Z,0.00
2019-04-21T01:27:54.142Z,0.00
2019-04-21T01:28:58.365Z,0.00
2019-04-21T01:29:59.743Z,0.00
2019-04-21T01:30:56.883Z,0.00
2019-04-21T01:32:06.245Z,0.00
2019-04-21T01:33:00.085Z,0.00
2019-04-21T01:34:03.071Z,0.00
2019-04-21T01:35:02.717Z,0.00
2019-04-21T01:35:58.085Z,0.00
2019-04-21T01:37:01.463Z,0.00
2019-04-21T01:38:04.960Z,0.00
2019-04-21T01:39:02.166Z,0.00
2019-04-21T01:40:02.528Z,0.00
2019-04-21T01:41:21.354Z,0.00
2019-04-21T01:41:58.378Z,0.00
2019-04-21T01:42:55.690Z,0.00
2019-04-21T01:43:56.885Z,0.00
2019-04-21T01:45:02.334Z,0.00
2019-04-21T01:46:04.651Z,0.00
2019-04-21T01:46:53.272Z,0.00
2019-04-21T01:47:57.510Z,0.00
2019-04-21T01:48:58.018Z,0.00
2019-04-21T01:49:50.157Z,0.00
2019-04-21T01:50:55.479Z,0.00
2019-04-21T01:52:10.059Z,0.00
2019-04-21T01:53:02.109Z,0.00
2019-04-21T01:54:05.158Z,0.00
2019-04-21T01:55:00.232Z,0.00
2019-04-21T01:56:00.574Z,0.00
2019-04-21T01:57:01.627Z,0.00
2019-04-21T01:58:00.425Z,0.00
2019-04-21T01:58:51.752Z,0.00
2019-04-21T01:59:53.005Z,0.00
2019-04-21T02:00:56.782Z,0.00
2019-04-21T02:02:02.281Z,0.00
2019-04-21T02:03:19.233Z,0.00
2019-04-21T02:04:00.051Z,0.00
2019-04-21T02:05:01.120Z,0.00
2019-04-21T02:06:09.749Z,0.00
2019-04-21T02:07:04.307Z,0.00
2019-04-21T02:08:01.114Z,0.00
2019-04-21T02:08:53.220Z,0.00
2019-04-21T02:10:09.171Z,0.00
2019-04-21T02:11:05.202Z,0.00
2019-04-21T02:12:01.312Z,0.00
2019-04-21T02:13:03.611Z,0.00
2019-04-21T02:14:10.201Z,0.00
2019-04-21T02:15:08.013Z,0.00
2019-04-21T02:16:06.816Z,0.00
2019-04-21T02:17:09.935Z,0.00
2019-04-21T02:17:59.696Z,0.00
2019-04-21T02:18:59.135Z,0.00
2019-04-21T02:19:56.211Z,0.00
2019-04-21T02:20:55.381Z,0.00
2019-04-21T02:21:55.283Z,0.00
2019-04-21T02:24:07.068Z,0.00
2019-04-21T02:25:11.017Z,0.00
2019-04-21T02:26:05.017Z,0.00
2019-04-21T02:27:07.126Z,0.00
2019-04-21T02:28:06.163Z,0.00
2019-04-21T02:29:10.115Z,0.00
2019-04-21T02:30:16.398Z,0.00
2019-04-21T02:31:22.773Z,0.00
2019-04-21T02:32:31.509Z,0.00
2019-04-21T02:33:32.419Z,0.00
2019-04-21T02:35:20.841Z,0.00
2019-04-21T02:37:28.470Z,0.00
2019-04-21T02:40:12.873Z,0.00
2019-04-21T02:41:31.145Z,0.00
2019-04-21T02:42:09.696Z,0.00
2019-04-21T02:45:20.885Z,0.00
2019-04-21T02:46:35.293Z,0.00
2019-04-21T02:47:19.122Z,0.00
2019-04-21T02:49:22.848Z,0.00
2019-04-21T02:50:21.265Z,0.00
2019-04-21T02:52:27.437Z,0.00
2019-04-21T02:53:18.408Z,0.00
2019-04-21T02:56:17.987Z,0.00
2019-04-21T02:58:16.066Z,0.00
2019-04-21T02:59:15.065Z,0.00
2019-04-21T03:00:18.746Z,0.00
2019-04-21T03:01:23.871Z,0.00
2019-04-21T03:02:17.241Z,0.00
2019-04-21T03:03:15.041Z,0.00
2019-04-21T03:05:24.352Z,0.00
2019-04-21T03:06:15.334Z,0.00
2019-04-21T03:08:14.354Z,0.00
2019-04-21T03:09:18.280Z,0.00
2019-04-21T03:10:18.249Z,0.00
2019-04-21T03:13:26.639Z,0.00
2019-04-21T03:14:25.155Z,0.00
2019-04-21T03:16:22.884Z,0.00
2019-04-21T03:17:22.381Z,0.00
2019-04-21T03:18:15.010Z,0.00
2019-04-21T03:19:17.638Z,0.00
2019-04-21T03:20:16.984Z,0.00
2019-04-21T03:21:15.831Z,0.00
2019-04-21T03:23:18.970Z,0.00
2019-04-21T03:24:24.725Z,0.00
2019-04-21T03:25:25.126Z,0.00
2019-04-21T03:26:28.606Z,0.00
2019-04-21T03:28:22.672Z,0.00
2019-04-21T03:29:20.338Z,0.00
2019-04-21T03:30:33.308Z,0.00
2019-04-21T03:31:39.459Z,0.00
2019-04-21T03:34:44.364Z,0.00
2019-04-21T03:35:53.714Z,0.00
2019-04-21T03:36:42.896Z,0.00
2019-04-21T03:38:19.136Z,0.00
2019-04-21T03:39:07.704Z,0.00
2019-04-21T03:40:15.195Z,0.00
2019-04-21T03:42:27.175Z,0.00
2019-04-21T03:43:21.348Z,0.00
2019-04-21T03:44:22.928Z,0.00
2019-04-21T03:45:25.092Z,0.00
2019-04-21T03:46:20.722Z,0.00
2019-04-21T03:47:22.921Z,0.00
2019-04-21T03:48:24.237Z,0.00
2019-04-21T03:49:29.887Z,0.00
2019-04-21T03:50:13.409Z,0.00
2019-04-21T03:51:23.149Z,0.00
2019-04-21T03:53:18.572Z,0.00
2019-04-21T03:54:15.626Z,0.00
2019-04-21T03:55:46.841Z,4.00
2019-04-21T03:56:45.358Z,4.00
2019-04-21T03:57:43.694Z,0.00
2019-04-21T03:58:26.025Z,4.00
2019-04-21T03:59:14.211Z,4.00
2019-04-21T04:00:34.659Z,4.00
2019-04-21T04:02:26.334Z,4.00
2019-04-21T04:05:31.313Z,8.00
2019-04-21T04:07:22.921Z,12.00
2019-04-21T04:08:39.608Z,16.00
2019-04-21T04:12:13.395Z,32.00
2019-04-21T04:13:34.000Z,36.00
2019-04-21T04:15:24.422Z,48.00
2019-04-21T04:16:19.621Z,52.00
2019-04-21T04:17:18.346Z,60.00
2019-04-21T04:18:28.000Z,72.00
2019-04-21T04:19:18.609Z,80.00
2019-04-21T04:22:19.428Z,116.00
2019-04-21T04:23:20.647Z,132.00
2019-04-21T04:24:24.075Z,148.00
2019-04-21T04:26:26.247Z,180.00
2019-04-21T04:27:33.660Z,200.00
2019-04-21T04:28:19.495Z,220.00
2019-04-21T04:29:20.396Z,244.00
2019-04-21T04:30:25.324Z,264.00
2019-04-21T04:32:25.187Z,308.00
2019-04-21T04:33:30.398Z,332.00
2019-04-21T04:34:21.834Z,356.00
2019-04-21T04:35:25.913Z,384.00
2019-04-21T04:39:36.252Z,508.00
2019-04-21T04:40:26.727Z,540.00
2019-04-21T04:43:24.917Z,636.00
2019-04-21T04:44:24.875Z,672.00
2019-04-21T04:46:22.308Z,736.00
2019-04-21T04:48:19.734Z,804.00
2019-04-21T04:49:40.122Z,840.00
2019-04-21T04:50:19.763Z,876.00
2019-04-21T04:51:25.202Z,908.00
2019-04-21T04:53:31.208Z,976.00
2019-04-21T04:54:31.588Z,1012.00
2019-04-21T04:55:26.226Z,1044.00
2019-04-21T04:56:20.596Z,1068.00
2019-04-21T04:58:35.554Z,1124.00
2019-04-21T05:00:28.151Z,1184.00
2019-04-21T05:02:29.865Z,1248.00
2019-04-21T05:03:27.186Z,1280.00
2019-04-21T05:04:30.473Z,1312.00
2019-04-21T05:06:34.509Z,1368.00
2019-04-21T05:07:29.813Z,1392.00
2019-04-21T05:08:33.790Z,1420.00
2019-04-21T05:10:31.111Z,1472.00
2019-04-21T05:11:30.487Z,1496.00
2019-04-21T05:12:17.530Z,1524.00
2019-04-21T05:13:26.559Z,1548.00
2019-04-21T05:16:36.223Z,1632.00
2019-04-21T05:18:24.372Z,1688.00
2019-04-21T05:19:34.158Z,1716.00
2019-04-21T05:20:20.451Z,1736.00
2019-04-21T05:21:30.169Z,1760.00
2019-04-21T05:23:14.430Z,1808.00
2019-04-21T05:24:13.701Z,1836.00
2019-04-21T05:25:08.366Z,1860.00
2019-04-21T05:26:06.676Z,1884.00
2019-04-21T05:27:07.335Z,1908.00
2019-04-21T05:28:04.847Z,1936.00
2019-04-21T05:29:01.836Z,1960.00
2019-04-21T05:30:17.761Z,1992.00
2019-04-21T05:31:19.779Z,2016.00
2019-04-21T05:32:13.244Z,2052.00
2019-04-21T05:33:18.778Z,2080.00
2019-04-21T05:34:26.910Z,2104.00
2019-04-21T05:35:16.924Z,2128.00
2019-04-21T05:36:13.210Z,2160.00
2019-04-21T05:37:18.783Z,2188.00
2019-04-21T05:38:11.675Z,2208.00
2019-04-21T05:39:08.931Z,2236.00
2019-04-21T05:40:10.649Z,2260.00
2019-04-21T05:41:06.523Z,2280.00
2019-04-21T05:42:02.539Z,2300.00
2019-04-21T05:43:20.208Z,2324.00
2019-04-21T05:44:13.258Z,2360.00
2019-04-21T05:45:24.194Z,2380.00
2019-04-21T05:46:13.720Z,2400.00
2019-04-21T05:47:35.517Z,2420.00
2019-04-21T05:48:37.885Z,2436.00
2019-04-21T05:49:15.383Z,2464.00
2019-04-21T05:50:12.151Z,2480.00
2019-04-21T05:51:09.006Z,2504.00
2019-04-21T05:52:08.117Z,2524.00
2019-04-21T05:54:22.920Z,2564.00
2019-04-21T05:55:16.808Z,2584.00
2019-04-21T05:56:17.357Z,2608.00
2019-04-21T05:57:17.160Z,2624.00
2019-04-21T05:58:13.153Z,2644.00
2019-04-21T05:59:12.144Z,2664.00
2019-04-21T06:00:33.470Z,2688.00
2019-04-21T06:01:23.911Z,2708.00
2019-04-21T06:02:24.295Z,2728.00
2019-04-21T06:03:18.346Z,2748.00
2019-04-21T06:04:34.467Z,2776.00
2019-04-21T06:06:20.089Z,2824.00
2019-04-21T06:07:18.935Z,2848.00
2019-04-21T06:08:23.473Z,2868.00
2019-04-21T06:09:19.050Z,2892.00
2019-04-21T06:10:14.095Z,2912.00
2019-04-21T06:11:17.911Z,2924.00
2019-04-21T06:12:16.138Z,2948.00
2019-04-21T06:13:27.507Z,2964.00
2019-04-21T06:14:16.824Z,2984.00
2019-04-21T06:15:14.033Z,3004.00
2019-04-21T06:16:17.817Z,3020.00
2019-04-21T06:17:25.290Z,3032.00
2019-04-21T06:18:22.116Z,3048.00
2019-04-21T06:19:23.637Z,3068.00
2019-04-21T06:20:20.657Z,3076.00
2019-04-21T06:21:16.542Z,3100.00
2019-04-21T06:22:14.853Z,3116.00
2019-04-21T06:23:21.018Z,3128.00
2019-04-21T06:24:15.997Z,3144.00
2019-04-21T06:25:41.027Z,3156.00
2019-04-21T06:26:47.905Z,3168.00
2019-04-21T06:27:23.921Z,3180.00
2019-04-21T06:28:22.694Z,3196.00
2019-04-21T06:29:15.230Z,3216.00
2019-04-21T06:30:19.633Z,3228.00
2019-04-21T06:31:19.971Z,3248.00
2019-04-21T06:32:37.443Z,3268.00
2019-04-21T06:33:21.024Z,3280.00
2019-04-21T06:34:16.660Z,3296.00
2019-04-21T06:35:36.018Z,3312.00
2019-04-21T06:37:40.407Z,3348.00
2019-04-21T06:38:28.470Z,3364.00
2019-04-21T06:40:30.538Z,3388.00
2019-04-21T06:41:26.482Z,3412.00
2019-04-21T06:42:14.677Z,3424.00
2019-04-21T06:44:14.906Z,3452.00
2019-04-21T06:45:18.576Z,3468.00
2019-04-21T06:46:25.625Z,3480.00
2019-04-21T06:47:33.519Z,3496.00
2019-04-21T06:48:25.892Z,3508.00
2019-04-21T06:49:17.214Z,3528.00
2019-04-21T06:50:22.719Z,3540.00
2019-04-21T06:51:22.436Z,3560.00
2019-04-21T06:52:44.882Z,3568.00
2019-04-21T06:53:23.784Z,3584.00
2019-04-21T06:54:22.001Z,3596.00
2019-04-21T06:55:22.839Z,3608.00
2019-04-21T06:56:24.021Z,3620.00
2019-04-21T06:57:21.809Z,3628.00
2019-04-21T06:58:19.692Z,3640.00
2019-04-21T06:59:19.190Z,3652.00
2019-04-21T07:00:19.592Z,3660.00
2019-04-21T07:01:26.450Z,3672.00
2019-04-21T07:02:39.974Z,3684.00
2019-04-21T07:03:30.942Z,3700.00
2019-04-21T07:05:20.398Z,3728.00
2019-04-21T07:06:23.430Z,3740.00
2019-04-21T07:07:19.735Z,3756.00
2019-04-21T07:08:31.148Z,3772.00
2019-04-21T07:09:31.407Z,3780.00
2019-04-21T07:10:22.070Z,3796.00
2019-04-21T07:11:18.771Z,3812.00
2019-04-21T07:12:18.671Z,3820.00
2019-04-21T07:13:21.324Z,3832.00
2019-04-21T07:15:25.191Z,3852.00
2019-04-21T07:16:19.216Z,3864.00
2019-04-21T07:17:24.642Z,3880.00
2019-04-21T07:18:19.176Z,3892.00
2019-04-21T07:19:31.914Z,3924.00
2019-04-21T07:20:17.258Z,3924.00
2019-04-21T07:21:23.525Z,3932.00
2019-04-21T07:22:24.679Z,3944.00
2019-04-21T07:23:26.032Z,3952.00
2019-04-21T07:24:29.164Z,3964.00
2019-04-21T07:25:22.082Z,3976.00
2019-04-21T07:26:20.311Z,3988.00
2019-04-21T07:27:23.932Z,4004.00
2019-04-21T07:28:27.115Z,4016.00
2019-04-21T07:29:21.989Z,4024.00
2019-04-21T07:30:24.576Z,4040.00
2019-04-21T07:31:27.714Z,4048.00
2019-04-21T07:32:22.116Z,4064.00
2019-04-21T07:33:41.296Z,4076.00
2019-04-21T07:34:28.758Z,4092.00
2019-04-21T07:35:22.171Z,4100.00
2019-04-21T07:36:32.362Z,4116.00
2019-04-21T07:37:20.387Z,4124.00
2019-04-21T07:38:24.701Z,4140.00
2019-04-21T07:39:18.112Z,4152.00
2019-04-21T07:40:15.155Z,4164.00
2019-04-21T07:41:15.934Z,4176.00
2019-04-21T07:42:18.692Z,4188.00
2019-04-21T07:43:18.370Z,4200.00
2019-04-21T07:44:13.629Z,4216.00
2019-04-21T07:45:21.218Z,4228.00
2019-04-21T07:46:17.345Z,4240.00
2019-04-21T07:47:20.185Z,4256.00
2019-04-21T07:48:19.070Z,4268.00
2019-04-21T07:49:19.210Z,4276.00
2019-04-21T07:50:24.802Z,4288.00
2019-04-21T07:51:25.203Z,4300.00
2019-04-21T07:52:25.666Z,4316.00
2019-04-21T07:53:27.720Z,4320.00
2019-04-21T07:54:34.117Z,4328.00
2019-04-21T07:56:08.800Z,4352.00
2019-04-21T07:57:17.078Z,4372.00
2019-04-21T07:58:24.334Z,4384.00
2019-04-21T07:59:34.270Z,4392.00
2019-04-21T08:01:27.431Z,4408.00
2019-04-21T08:02:23.400Z,4440.00
2019-04-21T08:03:19.423Z,4444.00
2019-04-21T08:04:44.809Z,4460.00
2019-04-21T08:05:47.129Z,4476.00
2019-04-21T08:06:31.923Z,4468.00
2019-04-21T08:07:24.486Z,4496.00
2019-04-21T08:08:20.893Z,4516.00
2019-04-21T08:09:18.246Z,4528.00
2019-04-21T08:10:24.230Z,4540.00
2019-04-21T08:11:21.080Z,4556.00
2019-04-21T08:12:16.227Z,4568.00
2019-04-21T08:13:32.779Z,4580.00
2019-04-21T08:14:24.957Z,4588.00
2019-04-21T08:16:25.693Z,4620.00
2019-04-21T08:17:16.444Z,4636.00
2019-04-21T08:18:21.048Z,4684.00
2019-04-21T08:19:32.208Z,4672.00
2019-04-21T08:20:18.471Z,4684.00
2019-04-21T08:21:20.632Z,4696.00
2019-04-21T08:22:25.675Z,4700.00
2019-04-21T08:23:25.387Z,4708.00
2019-04-21T08:24:19.735Z,4712.00
2019-04-21T08:25:19.340Z,4724.00
2019-04-21T08:26:27.673Z,4740.00
2019-04-21T08:27:25.715Z,4752.00
2019-04-21T08:28:26.401Z,4764.00
2019-04-21T08:29:40.874Z,4776.00
2019-04-21T08:30:28.814Z,4788.00
2019-04-21T08:31:46.405Z,4804.00
2019-04-21T08:32:26.533Z,4812.00
2019-04-21T08:33:32.481Z,4824.00
2019-04-21T08:35:48.590Z,4852.00
2019-04-21T08:36:28.507Z,4860.00
2019-04-21T08:37:24.854Z,4880.00
2019-04-21T08:38:20.066Z,4892.00
2019-04-21T08:39:19.545Z,4912.00
2019-04-21T08:40:31.719Z,4928.00
2019-04-21T08:41:28.162Z,4948.00
2019-04-21T08:42:27.066Z,4956.00
2019-04-21T08:43:32.021Z,4968.00
2019-04-21T08:44:26.214Z,4984.00
2019-04-21T08:45:28.240Z,4996.00
2019-04-21T08:46:25.648Z,5012.00
2019-04-21T08:47:25.566Z,5032.00
2019-04-21T08:48:25.410Z,5048.00
2019-04-21T08:49:22.285Z,5068.00
2019-04-21T08:50:20.923Z,5088.00
2019-04-21T08:51:28.512Z,5104.00
2019-04-21T08:52:44.343Z,5128.00
2019-04-21T08:53:24.956Z,5144.00
2019-04-21T08:55:24.933Z,5184.00
2019-04-21T08:56:34.353Z,5204.00
2019-04-21T08:57:33.284Z,5224.00
2019-04-21T08:58:30.994Z,5240.00
2019-04-21T08:59:28.921Z,5264.00
2019-04-21T09:00:26.021Z,5276.00
2019-04-21T09:01:33.327Z,5300.00
2019-04-21T09:02:29.508Z,5320.00
2019-04-21T09:03:21.360Z,5336.00
2019-04-21T09:04:24.488Z,5356.00
2019-04-21T09:05:23.432Z,5372.00
2019-04-21T09:06:40.249Z,5392.00
2019-04-21T09:07:35.899Z,5400.00
2019-04-21T09:08:27.689Z,5420.00
2019-04-21T09:09:22.381Z,5436.00
2019-04-21T09:10:24.354Z,5452.00
2019-04-21T09:11:26.184Z,5464.00
2019-04-21T09:12:22.597Z,5476.00
2019-04-21T09:13:24.759Z,5492.00
2019-04-21T09:14:28.849Z,5500.00
2019-04-21T09:15:25.250Z,5512.00
2019-04-21T09:16:20.813Z,5524.00
2019-04-21T09:17:21.712Z,5528.00
2019-04-21T09:18:18.565Z,5528.00
2019-04-21T09:19:35.285Z,5528.00
2019-04-21T09:20:29.183Z,5528.00
2019-04-21T09:21:28.178Z,5536.00
2019-04-21T09:22:24.453Z,5556.00
2019-04-21T09:23:25.656Z,5560.00
2019-04-21T09:24:26.675Z,5572.00
2019-04-21T09:25:26.974Z,5580.00
2019-04-21T09:26:28.207Z,5588.00
2019-04-21T09:27:21.842Z,5604.00
2019-04-21T09:28:19.894Z,5624.00
2019-04-21T09:29:15.997Z,5644.00
2019-04-21T09:30:06.954Z,5660.00
2019-04-21T09:31:07.127Z,5672.00
2019-04-21T09:32:12.477Z,5684.00
2019-04-21T09:33:07.468Z,5700.00
2019-04-21T09:34:08.392Z,5732.00
2019-04-21T09:35:10.745Z,5744.00
2019-04-21T09:36:11.322Z,5756.00
2019-04-21T09:37:23.559Z,5768.00
2019-04-21T09:38:16.220Z,5780.00
2019-04-21T09:39:12.992Z,5796.00
2019-04-21T09:40:06.853Z,5820.00
2019-04-21T09:41:12.509Z,5832.00
2019-04-21T09:42:06.813Z,5844.00
2019-04-21T09:43:10.340Z,5892.00
2019-04-21T09:44:15.063Z,5884.00
2019-04-21T09:45:10.025Z,5900.00
2019-04-21T09:46:08.339Z,5920.00
2019-04-21T09:47:08.810Z,5936.00
2019-04-21T09:48:13.361Z,5956.00
2019-04-21T09:49:12.121Z,5972.00
2019-04-21T09:50:08.503Z,5984.00
2019-04-21T09:51:08.589Z,6008.00
2019-04-21T09:52:13.783Z,6044.00
2019-04-21T09:53:16.836Z,6068.00
2019-04-21T09:54:12.436Z,6080.00
2019-04-21T09:55:14.328Z,6088.00
2019-04-21T09:56:14.172Z,6100.00
2019-04-21T09:57:18.302Z,6120.00
2019-04-21T09:58:18.131Z,6140.00
2019-04-21T09:59:16.523Z,6168.00
2019-04-21T10:00:13.096Z,6176.00
2019-04-21T10:01:19.775Z,6184.00
2019-04-21T10:02:16.089Z,6208.00
2019-04-21T10:03:11.964Z,6232.00
2019-04-21T10:04:08.160Z,6256.00
2019-04-21T10:05:08.271Z,6276.00
2019-04-21T10:06:08.722Z,6292.00
2019-04-21T10:07:09.033Z,6312.00
2019-04-21T10:08:08.401Z,6336.00
2019-04-21T10:09:13.866Z,6356.00
2019-04-21T10:10:08.526Z,6380.00
2019-04-21T10:11:09.860Z,6412.00
2019-04-21T10:12:09.795Z,6448.00
2019-04-21T10:13:08.710Z,6476.00
2019-04-21T10:14:09.749Z,6500.00
2019-04-21T10:15:08.834Z,6528.00
2019-04-21T10:16:08.895Z,6556.00
2019-04-21T10:17:08.960Z,6580.00
2019-04-21T10:18:09.019Z,6628.00
2019-04-21T10:19:09.081Z,6700.00
2019-04-21T10:20:09.540Z,6820.00
2019-04-21T10:21:09.699Z,6976.00
2019-04-21T10:22:10.479Z,7132.00
2019-04-21T10:23:09.329Z,7320.00
2019-04-21T10:24:10.499Z,7548.00
2019-04-21T10:25:10.468Z,7900.00
2019-04-21T10:26:10.478Z,8460.00
2019-04-21T10:27:12.202Z,9476.00
2019-04-21T10:28:10.834Z,15656.00
2019-04-21T10:29:19.740Z,37760.00
2019-04-21T10:30:09.999Z,56320.00
2019-04-21T10:31:11.010Z,59936.00
2019-04-21T10:32:11.262Z,60320.00
2019-04-21T10:33:10.379Z,61184.00
2019-04-21T10:34:11.407Z,61376.00
2019-04-21T10:35:10.953Z,61536.00
2019-04-21T10:36:11.044Z,61184.00
2019-04-21T10:37:11.210Z,61920.00
2019-04-21T10:38:19.825Z,61984.00
2019-04-21T10:39:11.499Z,62560.00
2019-04-21T10:40:11.633Z,62400.00
2019-04-21T10:41:11.732Z,62432.00
2019-04-21T10:42:11.283Z,62400.00
2019-04-21T10:43:12.014Z,62560.00
2019-04-21T10:44:11.443Z,62656.00
2019-04-21T10:45:10.955Z,62496.00
2019-04-21T10:46:10.851Z,62560.00
2019-04-21T10:47:11.138Z,62944.00
2019-04-21T10:48:11.000Z,62656.00
2019-04-21T10:49:11.021Z,62304.00
2019-04-21T10:50:11.105Z,62304.00
2019-04-21T10:51:11.157Z,62272.00
2019-04-21T10:52:11.225Z,62464.00
2019-04-21T10:53:11.301Z,62080.00
2019-04-21T10:54:11.678Z,62080.00
2019-04-21T10:55:32.167Z,62144.00
2019-04-21T10:56:17.998Z,61728.00
2019-04-21T10:57:12.549Z,61984.00
2019-04-21T10:58:11.643Z,61984.00
2019-04-21T10:59:12.094Z,61696.00
2019-04-21T11:00:12.608Z,61344.00
2019-04-21T11:01:12.737Z,61184.00
2019-04-21T11:02:12.774Z,60736.00
2019-04-21T11:03:12.993Z,60320.00
2019-04-21T11:04:17.231Z,60608.00
2019-04-21T11:05:12.546Z,60000.00
2019-04-21T11:06:12.666Z,59552.00
2019-04-21T11:07:17.580Z,59008.00
2019-04-21T11:08:22.713Z,58688.00
2019-04-21T11:09:13.730Z,58176.00
2019-04-21T11:10:13.947Z,57888.00
2019-04-21T11:11:12.556Z,57120.00
2019-04-21T11:12:13.570Z,56416.00
2019-04-21T11:13:12.698Z,55872.00
2019-04-21T11:14:13.455Z,55168.00
2019-04-21T11:15:12.856Z,54304.00
2019-04-21T11:16:13.177Z,53664.00
2019-04-21T11:17:14.257Z,52928.00
2019-04-21T11:18:13.054Z,52320.00
2019-04-21T11:19:13.784Z,51776.00
2019-04-21T11:20:13.197Z,50912.00
2019-04-21T11:21:13.346Z,50368.00
2019-04-21T11:22:14.636Z,49376.00
2019-04-21T11:23:14.230Z,48576.00
2019-04-21T11:24:14.335Z,47200.00
2019-04-21T11:25:13.561Z,47040.00
2019-04-21T11:26:13.979Z,46432.00
2019-04-21T11:27:14.996Z,45632.00
2019-04-21T11:28:14.450Z,45120.00
2019-04-21T11:29:14.937Z,44608.00
2019-04-21T11:30:13.911Z,43744.00
2019-04-21T11:31:15.358Z,43104.00
2019-04-21T11:32:14.774Z,42368.00
2019-04-21T11:33:15.353Z,42016.00
2019-04-21T11:34:15.392Z,41536.00
2019-04-21T11:35:15.061Z,40960.00
2019-04-21T11:36:15.502Z,40416.00
2019-04-21T11:37:14.460Z,40256.00
2019-04-21T11:38:18.963Z,39744.00
2019-04-21T11:39:25.671Z,39328.00
2019-04-21T11:40:18.005Z,39200.00
2019-04-21T11:41:15.927Z,38688.00
2019-04-21T11:42:15.558Z,38304.00
2019-04-21T11:43:15.715Z,38208.00
2019-04-21T11:44:16.219Z,38048.00
2019-04-21T11:45:14.980Z,37504.00
2019-04-21T11:46:16.263Z,37568.00
2019-04-21T11:47:16.358Z,37216.00
2019-04-21T11:48:16.517Z,37088.00
2019-04-21T11:49:15.810Z,36768.00
2019-04-21T11:50:15.334Z,36704.00
2019-04-21T11:51:15.473Z,36768.00
2019-04-21T11:52:16.547Z,36480.00
2019-04-21T11:53:16.770Z,36576.00
2019-04-21T11:54:16.977Z,36576.00
2019-04-21T11:55:16.615Z,36640.00
2019-04-21T11:56:16.848Z,37024.00
2019-04-21T11:57:22.742Z,37280.00
2019-04-21T11:58:16.055Z,37312.00
2019-04-21T11:59:15.975Z,37312.00
2019-04-21T12:00:16.043Z,38080.00
2019-04-21T12:01:16.116Z,38496.00
2019-04-21T12:02:17.261Z,39072.00
2019-04-21T12:03:17.374Z,40320.00
2019-04-21T12:04:17.898Z,41344.00
2019-04-21T12:05:17.336Z,43392.00
2019-04-21T12:06:17.449Z,44992.00
2019-04-21T12:07:17.547Z,46880.00
2019-04-21T12:08:24.958Z,50528.00
2019-04-21T12:09:16.951Z,54368.00
2019-04-21T12:10:17.689Z,57312.00
2019-04-21T12:11:17.751Z,60800.00
2019-04-21T12:12:17.042Z,65568.00
2019-04-21T12:13:18.217Z,70208.00
2019-04-21T12:14:18.311Z,75488.00
2019-04-21T12:15:17.107Z,78656.00
2019-04-21T12:16:17.196Z,80384.00
2019-04-21T12:17:18.339Z,83360.00
2019-04-21T12:18:17.847Z,85376.00
2019-04-21T12:19:18.652Z,86624.00
2019-04-21T12:20:18.776Z,85696.00
2019-04-21T12:21:17.529Z,85120.00
2019-04-21T12:22:22.180Z,84736.00
2019-04-21T12:23:18.398Z,86080.00
2019-04-21T12:24:17.742Z,85888.00
2019-04-21T12:25:18.833Z,86112.00
2019-04-21T12:26:18.067Z,85664.00
2019-04-21T12:27:18.193Z,85088.00
2019-04-21T12:28:18.024Z,85600.00
2019-04-21T12:29:18.912Z,85952.00
2019-04-21T12:30:18.165Z,85504.00
2019-04-21T12:31:18.235Z,85888.00
2019-04-21T12:32:18.309Z,86368.00
2019-04-21T12:33:18.377Z,85824.00
2019-04-21T12:34:19.465Z,86432.00
2019-04-21T12:35:19.685Z,86880.00
2019-04-21T12:36:19.820Z,87168.00
2019-04-21T12:37:19.235Z,87328.00
2019-04-21T12:38:29.892Z,87296.00
2019-04-21T12:39:18.835Z,85536.00
2019-04-21T12:40:18.874Z,84992.00
2019-04-21T12:41:20.118Z,85344.00
2019-04-21T12:42:19.021Z,85440.00
2019-04-21T12:43:19.086Z,84992.00
2019-04-21T12:44:20.187Z,87168.00
2019-04-21T12:45:19.321Z,87456.00
2019-04-21T12:46:20.034Z,86912.00
2019-04-21T12:47:19.639Z,85344.00
2019-04-21T12:48:20.104Z,84704.00
2019-04-21T12:49:20.104Z,84384.00
2019-04-21T12:50:19.586Z,84672.00
2019-04-21T12:51:19.791Z,85088.00
2019-04-21T12:52:19.887Z,84384.00
2019-04-21T12:53:21.215Z,83904.00
2019-04-21T12:54:19.872Z,82912.00
2019-04-21T12:55:23.245Z,82048.00
2019-04-21T12:56:20.014Z,81120.00
2019-04-21T12:57:21.331Z,80256.00
2019-04-21T12:58:21.367Z,81024.00
2019-04-21T12:59:21.193Z,80704.00
2019-04-21T13:00:20.740Z,81248.00
2019-04-21T13:01:20.960Z,80000.00
2019-04-21T13:02:20.444Z,80672.00
2019-04-21T13:03:23.334Z,80960.00
2019-04-21T13:04:21.765Z,80896.00
2019-04-21T13:05:21.864Z,81088.00
2019-04-21T13:06:21.369Z,79936.00
2019-04-21T13:07:21.618Z,79424.00
2019-04-21T13:08:21.762Z,78912.00
2019-04-21T13:09:22.234Z,79392.00
2019-04-21T13:10:22.154Z,78432.00
2019-04-21T13:11:21.383Z,77440.00
2019-04-21T13:12:21.158Z,75872.00
2019-04-21T13:13:22.070Z,75456.00
2019-04-21T13:14:22.130Z,74624.00
2019-04-21T13:15:21.856Z,73216.00
2019-04-21T13:16:21.447Z,73152.00
2019-04-21T13:17:21.532Z,72288.00
2019-04-21T13:18:22.654Z,72704.00
2019-04-21T13:19:21.665Z,72192.00
2019-04-21T13:20:21.733Z,72864.00
2019-04-21T13:21:22.428Z,72320.00
2019-04-21T13:22:21.878Z,71872.00
2019-04-21T13:23:23.127Z,71456.00
2019-04-21T13:24:22.094Z,71232.00
2019-04-21T13:25:23.515Z,70368.00
2019-04-21T13:26:29.572Z,70080.00
2019-04-21T13:27:22.639Z,69824.00
2019-04-21T13:28:22.912Z,68352.00